Hlavní strana
METAR-TAF:

METAR-TAF

Letiště :

Schleswig-Jagel, Německo

zeměpisná šířka: 54-28N, zeměpisná délka: 009-31E, výška: 22 m

Aktuální stav počasí

Zpráva byla vytvořena před 1 hodinou a 5 minutami, v 07:20 UTC
Západní vítr 18 kt
Teplota 10°C
Vlhkost vzduchu 66%
Tlak 1016 hPa

METAR: ETNS 140720Z AUTO 27018KT //// // ////// 10/04 Q1016 ///

Čas: 10:25 (08:25 UTC)


TAF: chybějící

Stav a předpovědi počasí z více než 4 000 letišť (zprávy METAR a TAF).

Červené a žluté tečky na mapě představují dostupné meteorologické stanice.

Když kurzor umístíte na tečku, zobrazí se název stanice.

Pak kliknutím zobrazíte stav a předpověď počasí.

Chcete-li změnit mapu, kliknutím na zelené tlačítko se znaménkem +mapu přiblížíte, kliknutím na zelené tlačítko se znaménkem – mapu oddálíte a kliknutím na zelené šipky přejdete na sousední mapy.


METAR-TAF: